createdAt,value
2017-10-05T00:02:24.271Z,100304.03
2017-10-05T00:05:04.979Z,100296.31
2017-10-05T00:07:47.097Z,100306.19
2017-10-05T00:10:27.214Z,100313.84
2017-10-05T00:13:12.919Z,100312.51
2017-10-05T00:15:42.694Z,100304.43
2017-10-05T00:18:11.369Z,100302.74
2017-10-05T00:20:40.034Z,100308.53
2017-10-05T00:23:08.662Z,100296.05
2017-10-05T00:25:37.122Z,100289.16
2017-10-05T00:28:05.625Z,100286.59
2017-10-05T00:30:34.093Z,100289.16
2017-10-05T00:33:02.747Z,100287.14
2017-10-05T00:35:31.386Z,100290.44
2017-10-05T00:38:00.122Z,100275.47
2017-10-05T00:40:28.733Z,100266.47
2017-10-05T00:42:57.430Z,100262.52
2017-10-05T00:45:26.046Z,100274.33
2017-10-05T00:47:54.681Z,100270.33
2017-10-05T00:50:23.363Z,100277.22
2017-10-05T00:52:52.006Z,100270.79
2017-10-05T00:55:20.339Z,100256.65
2017-10-05T00:57:48.682Z,100242.88
2017-10-05T01:00:17.047Z,100250.13
2017-10-05T01:02:45.719Z,100247.60
2017-10-05T01:05:14.375Z,100240.30
2017-10-05T01:07:43.071Z,100248.42
2017-10-05T01:10:11.682Z,100249.14
2017-10-05T01:12:40.338Z,100241.02
2017-10-05T01:15:08.971Z,100238.87
2017-10-05T01:17:37.593Z,100228.89
2017-10-05T01:20:06.282Z,100219.06
2017-10-05T01:22:34.632Z,100230.13
2017-10-05T01:25:03.279Z,100218.97
2017-10-05T01:27:31.951Z,100213.72
2017-10-05T01:30:00.614Z,100210.19
2017-10-05T01:32:29.226Z,100202.87
2017-10-05T01:34:57.909Z,100189.56
2017-10-05T01:37:26.529Z,100185.61
2017-10-05T01:39:55.197Z,100186.38
2017-10-05T01:42:23.828Z,100178.60
2017-10-05T01:44:52.459Z,100166.11
2017-10-05T01:47:21.125Z,100167.30
2017-10-05T01:49:49.755Z,100169.81
2017-10-05T01:52:18.153Z,100159.63
2017-10-05T01:54:47.415Z,100160.36
2017-10-05T01:57:16.047Z,100143.59
2017-10-05T01:59:44.698Z,100128.20
2017-10-05T02:02:13.325Z,100120.48
2017-10-05T02:04:42.079Z,100113.81
2017-10-05T02:07:10.746Z,100097.14
2017-10-05T02:09:39.445Z,100090.20
2017-10-05T02:12:08.122Z,100086.29
2017-10-05T02:14:36.771Z,100090.08
2017-10-05T02:17:05.423Z,100098.16
2017-10-05T02:19:34.075Z,100106.23
2017-10-05T02:22:02.748Z,100111.80
2017-10-05T02:24:31.402Z,100091.22
2017-10-05T02:27:00.034Z,100097.11
2017-10-05T02:29:28.727Z,100087.19
2017-10-05T02:31:57.343Z,100082.45
2017-10-05T02:34:26.009Z,100082.09
2017-10-05T02:36:54.647Z,100080.81
2017-10-05T02:39:23.303Z,100072.16
2017-10-05T02:41:51.923Z,100066.66
2017-10-05T02:44:22.054Z,100057.19
2017-10-05T02:46:50.732Z,100044.79
2017-10-05T02:49:19.339Z,100049.38
2017-10-05T02:51:47.995Z,100041.66
2017-10-05T02:54:16.630Z,100030.49
2017-10-05T02:56:45.303Z,100020.20
2017-10-05T02:59:13.954Z,99999.21
2017-10-05T03:01:42.654Z,100010.84
2017-10-05T03:04:11.326Z,100017.06
2017-10-05T03:06:39.983Z,100005.33
2017-10-05T03:09:08.636Z,100004.45
2017-10-05T03:11:37.302Z,100008.11
2017-10-05T03:14:05.902Z,99989.80
2017-10-05T03:16:34.550Z,99985.83
2017-10-05T03:19:03.161Z,99985.47
2017-10-05T03:21:31.810Z,99982.44
2017-10-05T03:24:00.445Z,99970.81
2017-10-05T03:26:29.091Z,99966.84
2017-10-05T03:28:57.692Z,99959.23
2017-10-05T03:31:26.357Z,99947.97
2017-10-05T03:33:54.998Z,99943.75
2017-10-05T03:36:23.673Z,99943.28
2017-10-05T03:38:52.290Z,99923.58
2017-10-05T03:41:20.954Z,99912.52
2017-10-05T03:43:49.635Z,99904.28
2017-10-05T03:46:18.335Z,99896.72
2017-10-05T03:48:46.939Z,99889.42
2017-10-05T03:51:15.550Z,99880.25
2017-10-05T03:53:44.062Z,99881.59
2017-10-05T03:56:12.682Z,99881.59
2017-10-05T03:58:41.330Z,99880.72
2017-10-05T04:01:09.935Z,99885.09
2017-10-05T04:03:38.434Z,99883.34
2017-10-05T04:06:06.938Z,99862.82
2017-10-05T04:08:35.977Z,99856.34
2017-10-05T04:11:04.467Z,99862.00
2017-10-05T04:13:32.939Z,99851.70
2017-10-05T04:16:01.437Z,99855.56
2017-10-05T04:18:34.158Z,99859.48
2017-10-05T04:21:02.816Z,99846.62
2017-10-05T04:23:32.248Z,99833.86
2017-10-05T04:26:00.970Z,99832.98
2017-10-05T04:28:29.584Z,99823.88
2017-10-05T04:30:58.249Z,99830.61
2017-10-05T04:33:27.011Z,99813.13
2017-10-05T04:35:59.042Z,99815.28
2017-10-05T04:38:27.669Z,99807.21
2017-10-05T04:40:56.326Z,99794.66
2017-10-05T04:43:25.013Z,99791.01
2017-10-05T04:45:53.618Z,99790.95
2017-10-05T04:48:22.320Z,99783.23
2017-10-05T04:50:50.948Z,99781.08
2017-10-05T04:53:19.591Z,99780.50
2017-10-05T04:55:48.321Z,99764.72
2017-10-05T04:58:17.032Z,99751.44
2017-10-05T05:00:45.385Z,99745.89
2017-10-05T05:03:14.027Z,99736.47
2017-10-05T05:05:42.688Z,99725.20
2017-10-05T05:08:11.329Z,99721.86
2017-10-05T05:10:39.999Z,99711.11
2017-10-05T05:13:08.659Z,99707.30
2017-10-05T05:15:37.302Z,99694.91
2017-10-05T05:18:05.996Z,99681.52
2017-10-05T05:20:34.666Z,99675.20
2017-10-05T05:23:03.277Z,99674.33
2017-10-05T05:25:31.929Z,99669.54
2017-10-05T05:28:00.533Z,99675.97
2017-10-05T05:30:29.190Z,99669.95
2017-10-05T05:32:57.782Z,99662.34
2017-10-05T05:35:26.417Z,99667.48
2017-10-05T05:37:55.081Z,99658.08
2017-10-05T05:40:23.736Z,99653.34
2017-10-05T05:42:52.453Z,99649.84
2017-10-05T05:45:21.067Z,99646.50
2017-10-05T05:47:49.723Z,99639.09
2017-10-05T05:50:18.402Z,99627.45
2017-10-05T05:52:47.031Z,99613.42
2017-10-05T05:55:15.235Z,99604.77
2017-10-05T05:57:43.878Z,99597.11
2017-10-05T06:00:12.247Z,99583.78
2017-10-05T06:02:40.577Z,99584.90
2017-10-05T06:05:09.063Z,99578.47
2017-10-05T06:07:37.706Z,99557.59
2017-10-05T06:10:06.181Z,99557.84
2017-10-05T06:12:34.841Z,99544.16
2017-10-05T06:15:03.449Z,99535.09
2017-10-05T06:17:32.073Z,99531.64
2017-10-05T06:20:00.747Z,99525.21
2017-10-05T06:22:29.359Z,99494.34
2017-10-05T06:24:58.087Z,99493.47
2017-10-05T06:27:26.757Z,99490.48
2017-10-05T06:29:55.366Z,99471.66
2017-10-05T06:32:24.011Z,99459.16
2017-10-05T06:34:52.625Z,99453.52
2017-10-05T06:37:21.281Z,99449.25
2017-10-05T06:39:49.906Z,99445.39
2017-10-05T06:42:18.576Z,99441.12
2017-10-05T06:44:47.234Z,99434.58
2017-10-05T06:47:15.854Z,99423.88
2017-10-05T06:49:44.454Z,99399.32
2017-10-05T06:52:13.059Z,99391.61
2017-10-05T06:54:41.723Z,99393.30
2017-10-05T06:57:10.353Z,99390.38
2017-10-05T06:59:39.003Z,99383.36
2017-10-05T07:02:08.297Z,99376.40
2017-10-05T07:04:36.968Z,99362.72
2017-10-05T07:07:05.576Z,99361.49
2017-10-05T07:09:34.258Z,99346.41
2017-10-05T07:12:02.858Z,99343.78
2017-10-05T07:14:31.464Z,99336.94
2017-10-05T07:17:00.113Z,99329.57
2017-10-05T07:19:28.739Z,99325.65
2017-10-05T07:21:57.433Z,99318.28
2017-10-05T07:24:26.071Z,99305.30
2017-10-05T07:26:54.741Z,99304.89
2017-10-05T07:29:23.347Z,99288.52
2017-10-05T07:31:52.009Z,99271.36
2017-10-05T07:34:20.606Z,99258.91
2017-10-05T07:36:49.262Z,99241.30
2017-10-05T07:39:17.893Z,99242.06
2017-10-05T07:41:46.544Z,99219.66
2017-10-05T07:44:15.258Z,99208.49
2017-10-05T07:46:43.916Z,99209.30
2017-10-05T07:49:12.523Z,99189.95
2017-10-05T07:51:41.194Z,99178.72
2017-10-05T07:54:09.858Z,99170.13
2017-10-05T07:56:38.327Z,99160.64
2017-10-05T07:59:06.982Z,99149.82
2017-10-05T08:01:35.649Z,99137.77
2017-10-05T08:04:04.270Z,99119.23
2017-10-05T08:06:32.942Z,99103.39
2017-10-05T08:09:01.555Z,99094.73
2017-10-05T08:11:30.202Z,99077.59
2017-10-05T08:13:58.826Z,99067.27
2017-10-05T08:16:27.474Z,99056.45
2017-10-05T08:18:56.075Z,99038.78
2017-10-05T08:21:24.736Z,99031.06
2017-10-05T08:23:53.335Z,99015.15
2017-10-05T08:26:21.986Z,99014.14
2017-10-05T08:28:50.601Z,98992.61
2017-10-05T08:31:19.248Z,98981.91
2017-10-05T08:33:47.869Z,98971.97
2017-10-05T08:36:16.526Z,98968.51
2017-10-05T08:38:45.131Z,98947.39
2017-10-05T08:41:13.780Z,98941.30
2017-10-05T08:43:42.458Z,98934.87
2017-10-05T08:46:11.078Z,98919.30
2017-10-05T08:48:39.707Z,98905.52
2017-10-05T08:51:08.403Z,98882.22
2017-10-05T08:53:37.037Z,98866.78
2017-10-05T08:56:05.709Z,98854.73
2017-10-05T08:58:34.842Z,98843.83
2017-10-05T09:01:03.379Z,98838.14
2017-10-05T09:03:32.033Z,98816.13
2017-10-05T09:06:00.701Z,98815.32
2017-10-05T09:08:31.167Z,98805.64
2017-10-05T09:10:59.689Z,98799.95
2017-10-05T09:13:28.186Z,98787.92
2017-10-05T09:15:56.810Z,98772.75
2017-10-05T09:18:25.314Z,98765.70
2017-10-05T09:20:53.795Z,98755.34
2017-10-05T09:23:22.451Z,98738.82
2017-10-05T09:25:51.073Z,98727.91
2017-10-05T09:28:19.730Z,98719.64
2017-10-05T09:30:48.401Z,98713.84
2017-10-05T09:33:17.014Z,98701.44
2017-10-05T09:35:45.682Z,98695.61
2017-10-05T09:38:14.341Z,98687.30
2017-10-05T09:40:42.949Z,98672.45
2017-10-05T09:43:11.609Z,98664.52
2017-10-05T09:45:40.230Z,98652.99
2017-10-05T09:48:08.908Z,98642.84
2017-10-05T09:50:37.526Z,98626.70
2017-10-05T09:53:06.190Z,98612.41
2017-10-05T09:55:34.814Z,98602.96
2017-10-05T09:58:03.476Z,98589.02
2017-10-05T10:00:32.086Z,98579.80
2017-10-05T10:03:00.689Z,98577.00
2017-10-05T10:05:29.337Z,98573.06
2017-10-05T10:07:57.939Z,98560.37
2017-10-05T10:10:26.603Z,98558.95
2017-10-05T10:12:55.210Z,98544.75
2017-10-05T10:15:23.867Z,98541.91
2017-10-05T10:17:52.540Z,98538.23
2017-10-05T10:20:21.232Z,98539.97
2017-10-05T10:22:49.842Z,98528.52
2017-10-05T10:25:18.495Z,98513.23
2017-10-05T10:27:47.115Z,98504.80
2017-10-05T10:30:15.725Z,98513.02
2017-10-05T10:32:44.382Z,98496.17
2017-10-05T10:35:12.989Z,98495.47
2017-10-05T10:37:41.638Z,98502.94
2017-10-05T10:40:10.264Z,98484.27
2017-10-05T10:42:38.925Z,98472.55
2017-10-05T10:45:07.527Z,98461.53
2017-10-05T10:47:36.131Z,98445.95
2017-10-05T10:50:04.765Z,98434.52
2017-10-05T10:52:33.447Z,98419.97
2017-10-05T10:55:02.094Z,98409.83
2017-10-05T10:57:30.714Z,98402.30
2017-10-05T10:59:59.410Z,98403.03
2017-10-05T11:02:28.019Z,98404.27
2017-10-05T11:04:56.695Z,98379.21
2017-10-05T11:07:25.346Z,98382.32
2017-10-05T11:09:53.969Z,98362.34
2017-10-05T11:12:22.619Z,98349.95
2017-10-05T11:14:51.422Z,98337.50
2017-10-05T11:17:20.146Z,98343.48
2017-10-05T11:19:48.810Z,98333.26
2017-10-05T11:22:17.469Z,98326.98
2017-10-05T11:24:46.069Z,98332.82
2017-10-05T11:27:14.730Z,98322.11
2017-10-05T11:29:43.363Z,98321.72
2017-10-05T11:32:12.010Z,98329.05
2017-10-05T11:34:40.669Z,98339.42
2017-10-05T11:37:09.290Z,98427.73
2017-10-05T11:39:37.946Z,98491.22
2017-10-05T11:42:06.562Z,98527.56
2017-10-05T11:44:35.223Z,98583.81
2017-10-05T11:47:03.833Z,98664.06
2017-10-05T11:49:32.482Z,98703.22
2017-10-05T11:52:01.094Z,98760.98
2017-10-05T11:54:29.754Z,98836.83
2017-10-05T11:56:58.377Z,98853.29
2017-10-05T11:59:27.073Z,98901.56
2017-10-05T12:01:55.705Z,98936.95
2017-10-05T12:04:24.381Z,98955.98
2017-10-05T12:06:52.993Z,98965.58
2017-10-05T12:09:21.682Z,99005.73
2017-10-05T12:11:50.286Z,99049.88
2017-10-05T12:14:18.951Z,99070.09
2017-10-05T12:16:47.574Z,99112.20
2017-10-05T12:19:16.166Z,99147.22
2017-10-05T12:21:44.839Z,99137.27
2017-10-05T12:24:13.462Z,99183.03
2017-10-05T12:26:42.160Z,99198.06
2017-10-05T12:29:10.844Z,99237.97
2017-10-05T12:31:39.494Z,99259.70
2017-10-05T12:34:08.161Z,99295.87
2017-10-05T12:36:36.805Z,99316.92
2017-10-05T12:39:05.139Z,99325.67
2017-10-05T12:41:34.113Z,99342.72
2017-10-05T12:44:02.726Z,99348.42
2017-10-05T12:46:31.337Z,99380.41
2017-10-05T12:49:00.442Z,99389.44
2017-10-05T12:51:29.121Z,99404.55
2017-10-05T12:53:57.779Z,99429.58
2017-10-05T12:56:26.399Z,99434.17
2017-10-05T12:58:54.886Z,99453.42
2017-10-05T13:01:23.639Z,99458.75
2017-10-05T13:03:52.250Z,99462.08
2017-10-05T13:06:21.062Z,99472.05
2017-10-05T13:08:49.698Z,99477.28
2017-10-05T13:11:18.338Z,99495.75
2017-10-05T13:13:46.995Z,99519.85
2017-10-05T13:16:15.593Z,99523.55
2017-10-05T13:18:44.241Z,99541.88
2017-10-05T13:21:12.899Z,99560.80
2017-10-05T13:23:41.550Z,99568.06
2017-10-05T13:26:10.188Z,99572.58
2017-10-05T13:28:38.841Z,99590.09
2017-10-05T13:31:07.467Z,99589.52
2017-10-05T13:33:36.123Z,99615.27
2017-10-05T13:36:04.786Z,99611.31
2017-10-05T13:38:34.721Z,99621.48
2017-10-05T13:41:03.377Z,99629.41
2017-10-05T13:43:32.110Z,99660.13
2017-10-05T13:46:00.908Z,99667.57
2017-10-05T13:48:33.182Z,99687.14
2017-10-05T13:51:01.855Z,99680.51
2017-10-05T13:53:30.464Z,99689.04
2017-10-05T13:55:59.158Z,99688.14
2017-10-05T13:58:27.841Z,99676.73
2017-10-05T14:00:56.502Z,99693.11
2017-10-05T14:03:25.111Z,99681.91
2017-10-05T14:05:53.774Z,99680.69
2017-10-05T14:08:22.407Z,99699.55
2017-10-05T14:10:51.050Z,99709.84
2017-10-05T14:13:19.678Z,99713.13
2017-10-05T14:15:48.338Z,99710.70
2017-10-05T14:18:16.962Z,99726.48
2017-10-05T14:20:45.574Z,99711.98
2017-10-05T14:23:14.226Z,99727.14
2017-10-05T14:25:42.893Z,99722.22
2017-10-05T14:28:11.490Z,99736.48
2017-10-05T14:30:40.147Z,99736.56
2017-10-05T14:33:08.804Z,99733.12
2017-10-05T14:35:37.410Z,99733.06
2017-10-05T14:38:06.070Z,99745.92
2017-10-05T14:40:34.688Z,99741.03
2017-10-05T14:43:03.338Z,99745.52
2017-10-05T14:45:31.992Z,99749.00
2017-10-05T14:48:00.625Z,99746.38
2017-10-05T14:50:29.251Z,99746.50
2017-10-05T14:52:57.930Z,99759.20
2017-10-05T14:55:26.525Z,99769.56
2017-10-05T14:57:55.223Z,99778.85
2017-10-05T15:00:23.863Z,99782.83
2017-10-05T15:02:52.534Z,99786.00
2017-10-05T15:05:21.210Z,99788.34
2017-10-05T15:07:49.715Z,99800.00
2017-10-05T15:10:18.332Z,99797.95
2017-10-05T15:12:46.974Z,99804.33
2017-10-05T15:15:15.627Z,99820.58
2017-10-05T15:17:44.267Z,99830.36
2017-10-05T15:20:12.923Z,99829.48
2017-10-05T15:22:41.533Z,99827.78
2017-10-05T15:25:10.143Z,99833.25
2017-10-05T15:27:38.835Z,99842.14
2017-10-05T15:30:07.522Z,99844.83
2017-10-05T15:32:36.204Z,99852.78
2017-10-05T15:35:04.840Z,99856.59
2017-10-05T15:37:33.502Z,99876.22
2017-10-05T15:40:02.132Z,99869.09
2017-10-05T15:42:30.755Z,99869.91
2017-10-05T15:44:59.397Z,99882.00
2017-10-05T15:47:28.015Z,99874.29
2017-10-05T15:49:56.716Z,99879.48
2017-10-05T15:52:25.321Z,99884.84
2017-10-05T15:54:55.117Z,99885.30
2017-10-05T15:57:23.794Z,99890.06
2017-10-05T15:59:52.411Z,99898.01
2017-10-05T16:02:21.161Z,99892.38
2017-10-05T16:04:49.763Z,99895.19
2017-10-05T16:07:18.387Z,99901.61
2017-10-05T16:09:47.043Z,99906.71
2017-10-05T16:12:15.641Z,99913.50
2017-10-05T16:14:44.290Z,99911.14
2017-10-05T16:17:12.905Z,99914.99
2017-10-05T16:19:41.519Z,99915.30
2017-10-05T16:22:10.187Z,99918.28
2017-10-05T16:24:38.793Z,99917.16
2017-10-05T16:27:07.441Z,99914.50
2017-10-05T16:29:36.063Z,99931.02
2017-10-05T16:32:04.739Z,99928.72
2017-10-05T16:34:33.262Z,99931.86
2017-10-05T16:37:01.726Z,99936.99
2017-10-05T16:39:30.326Z,99938.28
2017-10-05T16:41:58.973Z,99949.64
2017-10-05T16:44:27.585Z,99942.31
2017-10-05T16:46:56.239Z,99950.67
2017-10-05T16:49:24.895Z,99957.27
2017-10-05T16:51:53.495Z,99956.49
2017-10-05T16:54:22.181Z,99958.39
2017-10-05T16:57:06.399Z,99956.95
2017-10-05T16:59:42.995Z,99960.10
2017-10-05T17:02:11.665Z,99965.66
2017-10-05T17:04:40.338Z,99971.87
2017-10-05T17:07:25.088Z,99983.44
2017-10-05T17:09:59.764Z,99982.61
2017-10-05T17:12:37.631Z,99993.09
2017-10-05T17:15:09.681Z,99987.85
2017-10-05T17:17:55.156Z,99990.94
2017-10-05T17:20:26.255Z,99998.55
2017-10-05T17:22:59.278Z,99992.89
2017-10-05T17:25:36.690Z,100000.19
2017-10-05T17:31:10.579Z,100014.42
2017-10-05T17:33:50.609Z,100030.04
2017-10-05T17:36:19.783Z,100031.63
2017-10-05T17:38:48.534Z,100033.11
2017-10-05T17:41:17.271Z,100044.36
2017-10-05T17:43:46.732Z,100031.41
2017-10-05T17:46:27.359Z,100046.71
2017-10-05T17:48:56.681Z,100046.25
2017-10-05T17:51:39.557Z,100040.38
2017-10-05T17:54:15.620Z,100057.20
2017-10-05T17:57:00.654Z,100052.05
2017-10-05T17:59:37.541Z,100049.63
2017-10-05T18:02:12.759Z,100052.03
2017-10-05T18:04:44.476Z,100046.11
2017-10-05T18:07:24.273Z,100055.02
2017-10-05T18:10:07.037Z,100052.91
2017-10-05T18:12:48.526Z,100061.21
2017-10-05T18:15:20.547Z,100066.65
2017-10-05T18:17:59.687Z,100058.02
2017-10-05T18:20:40.633Z,100075.13
2017-10-05T18:23:21.966Z,100074.08
2017-10-05T18:25:59.934Z,100088.25
2017-10-05T18:31:28.064Z,100079.41
2017-10-05T18:34:02.828Z,100077.66
2017-10-05T18:36:48.485Z,100083.67
2017-10-05T18:39:27.012Z,100079.01
2017-10-05T18:42:13.234Z,100091.90
2017-10-05T18:44:52.510Z,100114.38
2017-10-05T18:47:26.100Z,100103.27
2017-10-05T18:50:03.389Z,100106.39
2017-10-05T18:52:54.767Z,100115.70
2017-10-05T18:58:13.692Z,100104.20
2017-10-05T19:00:42.378Z,100104.24
2017-10-05T19:03:11.073Z,100103.69
2017-10-05T19:05:39.687Z,100102.59
2017-10-05T19:08:08.361Z,100105.52
2017-10-05T19:10:37.028Z,100101.26
2017-10-05T19:13:10.368Z,100107.36
2017-10-05T19:15:38.994Z,100115.02
2017-10-05T19:18:08.607Z,100120.11
2017-10-05T19:20:39.707Z,100125.24
2017-10-05T19:23:27.922Z,100117.27
2017-10-05T19:25:56.562Z,100114.77
2017-10-05T19:28:26.945Z,100115.17
2017-10-05T19:30:55.600Z,100115.98
2017-10-05T19:33:26.495Z,100118.16
2017-10-05T19:36:05.549Z,100116.05
2017-10-05T19:38:55.987Z,100113.45
2017-10-05T19:41:30.070Z,100121.98
2017-10-05T19:44:02.331Z,100116.91
2017-10-05T19:46:43.304Z,100120.45
2017-10-05T19:49:21.911Z,100119.94
2017-10-05T19:51:59.623Z,100121.45
2017-10-05T19:54:37.537Z,100132.09
2017-10-05T19:57:13.315Z,100136.41
2017-10-05T19:59:50.376Z,100131.68
2017-10-05T20:02:19.032Z,100141.13
2017-10-05T20:04:47.633Z,100146.81
2017-10-05T20:07:16.292Z,100154.92
2017-10-05T20:09:48.895Z,100158.91
2017-10-05T20:12:20.662Z,100155.52
2017-10-05T20:14:52.801Z,100146.99
2017-10-05T20:17:29.680Z,100154.23
2017-10-05T20:23:15.116Z,100151.48
2017-10-05T20:26:03.339Z,100145.52
2017-10-05T20:28:40.365Z,100143.83
2017-10-05T20:34:19.788Z,100141.63
2017-10-05T20:36:49.202Z,100145.02
2017-10-05T20:39:18.319Z,100151.53
2017-10-05T20:41:48.171Z,100142.82
2017-10-05T20:44:16.789Z,100142.91
2017-10-05T20:46:46.374Z,100143.83
2017-10-05T20:49:15.023Z,100143.38
2017-10-05T20:51:58.238Z,100144.15
2017-10-05T20:54:43.499Z,100138.87
2017-10-05T20:57:30.055Z,100142.18
2017-10-05T21:00:16.119Z,100141.77
2017-10-05T21:03:02.206Z,100145.16
2017-10-05T21:05:44.864Z,100137.39
2017-10-05T21:08:26.426Z,100134.11
2017-10-05T21:11:09.179Z,100128.05
2017-10-05T21:13:50.800Z,100128.28
2017-10-05T21:16:32.847Z,100144.06
2017-10-05T21:19:14.626Z,100137.23
2017-10-05T21:21:56.820Z,100143.64
2017-10-05T21:24:38.208Z,100143.92
2017-10-05T21:27:21.184Z,100145.75
2017-10-05T21:30:02.126Z,100153.05
2017-10-05T21:32:43.328Z,100153.05
2017-10-05T21:35:23.252Z,100153.88
2017-10-05T21:38:04.455Z,100148.46
2017-10-05T21:40:49.454Z,100149.66
2017-10-05T21:43:19.230Z,100148.00
2017-10-05T21:45:47.860Z,100143.78
2017-10-05T21:48:16.534Z,100151.72
2017-10-05T21:50:45.170Z,100147.82
2017-10-05T21:53:13.852Z,100151.98
2017-10-05T21:55:42.494Z,100154.50
2017-10-05T21:58:11.160Z,100155.78
2017-10-05T22:00:39.267Z,100152.30
2017-10-05T22:03:07.924Z,100155.19
2017-10-05T22:05:36.579Z,100148.22
2017-10-05T22:08:05.233Z,100155.55
2017-10-05T22:10:33.855Z,100159.45
2017-10-05T22:13:02.523Z,100158.53
2017-10-05T22:15:31.198Z,100160.23
2017-10-05T22:17:59.819Z,100157.52
2017-10-05T22:20:28.482Z,100161.10
2017-10-05T22:22:57.107Z,100164.49
2017-10-05T22:25:25.841Z,100164.86
2017-10-05T22:27:54.512Z,100161.42
2017-10-05T22:30:23.119Z,100155.51
2017-10-05T22:32:51.781Z,100150.83
2017-10-05T22:35:20.395Z,100157.57
2017-10-05T22:37:48.998Z,100163.08
2017-10-05T22:40:17.746Z,100161.84
2017-10-05T22:42:46.374Z,100162.30
2017-10-05T22:45:15.054Z,100155.09
2017-10-05T22:47:43.681Z,100168.44
2017-10-05T22:50:12.351Z,100170.59
2017-10-05T22:52:40.977Z,100168.80
2017-10-05T22:55:09.599Z,100164.86
2017-10-05T22:57:38.251Z,100161.84
2017-10-05T23:00:06.542Z,100160.37
2017-10-05T23:02:38.895Z,100159.36
2017-10-05T23:05:12.521Z,100165.83
2017-10-05T23:07:46.499Z,100167.11
2017-10-05T23:10:28.612Z,100164.49
2017-10-05T23:13:01.543Z,100164.54
2017-10-05T23:15:36.312Z,100165.96
2017-10-05T23:18:06.283Z,100169.63
2017-10-05T23:20:37.193Z,100171.83
2017-10-05T23:23:08.520Z,100174.08
2017-10-05T23:25:39.789Z,100172.25
2017-10-05T23:28:09.783Z,100169.40
2017-10-05T23:30:40.293Z,100170.96
2017-10-05T23:33:08.917Z,100183.25
2017-10-05T23:35:37.523Z,100176.46
2017-10-05T23:38:06.194Z,100175.27
2017-10-05T23:40:34.815Z,100171.88
2017-10-05T23:43:03.503Z,100174.91
2017-10-05T23:45:33.420Z,100172.98
2017-10-05T23:48:02.322Z,100176.59
2017-10-05T23:50:30.993Z,100177.47
2017-10-05T23:52:59.608Z,100179.72
2017-10-05T23:55:28.263Z,100182.70
2017-10-05T23:57:56.872Z,100183.20
